Time;durP1;ratioP1;P1;durP2;ratioP2;P2;SDS_P1;SDS_P2;PMS_P1;PMS_P2;Temp;Humidity;BMP_temperature;BMP_pressure;BME280_temperature;BME280_humidity;BME280_pressure;Samples;Min_cycle;Max_cycle;Signal;HPM_P1;HPM_P2
2022/05/08 00:01:50;;;;;;;3.70;1.92;;;18.00;64.80;;;;;;10416020;28;20034;-52
2022/05/08 00:06:50;;;;;;;3.75;2.40;;;18.00;64.80;;;;;;10415949;28;20121;-51
2022/05/08 00:11:52;;;;;;;3.80;1.98;;;18.00;64.70;;;;;;10409983;28;20504;-53
2022/05/08 00:16:53;;;;;;;4.15;2.25;;;18.00;64.70;;;;;;10415856;28;20049;-52
2022/05/08 00:21:53;;;;;;;3.40;2.67;;;18.00;64.60;;;;;;10406359;28;20113;-50
2022/05/08 00:26:54;;;;;;;3.60;2.13;;;18.00;64.80;;;;;;10411277;28;20079;-52
2022/05/08 00:31:55;;;;;;;3.15;2.40;;;18.00;64.60;;;;;;10414131;28;20451;-52
2022/05/08 00:36:56;;;;;;;3.67;2.65;;;18.00;64.60;;;;;;10413521;28;20391;-53
2022/05/08 00:41:56;;;;;;;3.70;2.65;;;18.00;64.60;;;;;;10413383;28;20061;-51
2022/05/08 00:46:57;;;;;;;2.95;2.17;;;18.00;64.50;;;;;;10414567;28;20057;-50
2022/05/08 00:51:58;;;;;;;2.97;2.33;;;18.00;64.50;;;;;;10404245;28;20061;-49
2022/05/08 00:56:59;;;;;;;3.47;2.42;;;18.00;64.50;;;;;;10412687;28;20052;-52
2022/05/08 01:02:00;;;;;;;3.85;2.63;;;18.00;64.40;;;;;;10414167;28;20037;-50
2022/05/08 01:07:01;;;;;;;3.30;2.42;;;18.00;64.30;;;;;;10413704;28;20033;-51
2022/05/08 01:12:01;;;;;;;3.70;2.60;;;18.00;64.30;;;;;;10412416;28;20029;-51
2022/05/08 01:17:02;;;;;;;4.40;2.65;;;18.00;64.40;;;;;;10413372;28;20026;-51
2022/05/08 01:22:04;;;;;;;3.45;2.50;;;18.00;64.30;;;;;;10413490;28;20066;-52
2022/05/08 01:27:05;;;;;;;5.18;2.42;;;17.90;64.20;;;;;;10411730;28;20044;-51
2022/05/08 01:32:07;;;;;;;3.53;2.72;;;17.90;64.20;;;;;;10411804;28;20037;-53
2022/05/08 01:37:07;;;;;;;3.70;3.08;;;17.90;64.80;;;;;;10412809;28;20069;-51
2022/05/08 01:42:08;;;;;;;3.80;2.50;;;17.90;64.30;;;;;;10412711;28;20037;-52
2022/05/08 01:52:28;;;;;;;3.05;2.25;;;17.90;64.10;;;;;;10401660;28;20049;-50
2022/05/08 01:57:29;;;;;;;4.10;2.90;;;17.90;64.10;;;;;;10412540;28;20029;-54
2022/05/08 02:02:31;;;;;;;4.57;2.60;;;17.90;64.10;;;;;;10411375;28;20478;-50
2022/05/08 02:07:34;;;;;;;5.78;2.92;;;17.90;64.00;;;;;;10427462;28;20036;-52
2022/05/08 02:12:34;;;;;;;3.67;2.22;;;17.90;64.10;;;;;;10412272;28;20073;-51
2022/05/08 02:17:36;;;;;;;7.70;3.08;;;17.90;64.10;;;;;;10412396;28;20029;-50
2022/05/08 02:22:38;;;;;;;3.85;2.20;;;17.90;64.00;;;;;;10398922;28;20037;-51
2022/05/08 02:27:41;;;;;;;6.35;2.60;;;17.90;63.90;;;;;;10427085;28;20049;-52
2022/05/08 02:32:42;;;;;;;4.18;2.33;;;17.90;63.90;;;;;;10412028;28;20029;-51
2022/05/08 02:37:43;;;;;;;6.63;2.72;;;17.90;63.90;;;;;;10411649;28;20040;-52
2022/05/08 02:42:44;;;;;;;4.90;2.83;;;17.80;63.70;;;;;;10410100;28;20409;-51
2022/05/08 02:47:45;;;;;;;6.95;2.63;;;17.80;63.70;;;;;;10427105;28;20026;-51
2022/05/08 02:52:46;;;;;;;4.80;2.20;;;17.80;63.70;;;;;;10413613;28;20033;-51
2022/05/08 03:03:12;;;;;;;4.45;2.47;;;17.80;63.70;;;;;;10417699;28;20038;-50
2022/05/08 03:08:15;;;;;;;4.65;2.78;;;17.80;63.60;;;;;;10417061;28;20093;-52
2022/05/08 03:13:15;;;;;;;5.38;2.67;;;17.80;63.50;;;;;;10418332;28;20037;-50
2022/05/08 03:18:17;;;;;;;5.13;2.50;;;17.80;63.50;;;;;;10417938;28;20083;-51
2022/05/08 03:23:17;;;;;;;3.90;2.33;;;17.80;63.50;;;;;;10407825;28;20045;-50
2022/05/08 03:28:18;;;;;;;5.57;2.95;;;17.70;63.40;;;;;;10416335;28;20390;-50
2022/05/08 03:33:19;;;;;;;4.32;2.35;;;17.80;63.40;;;;;;10415839;28;20040;-52
2022/05/08 03:38:20;;;;;;;4.47;2.78;;;17.80;63.30;;;;;;10417128;28;20084;-50
2022/05/08 03:43:23;;;;;;;6.35;2.67;;;17.70;63.30;;;;;;10415981;28;20520;-52
2022/05/08 03:48:24;;;;;;;6.95;2.75;;;17.70;63.20;;;;;;10416015;28;20029;-50
2022/05/08 03:53:25;;;;;;;6.13;2.47;;;17.70;63.10;;;;;;10409265;28;20041;-52
2022/05/08 03:58:26;;;;;;;5.05;2.83;;;17.70;62.90;;;;;;10415559;28;20100;-50
2022/05/08 04:03:26;;;;;;;5.07;2.40;;;17.70;63.00;;;;;;10416126;28;20112;-52
2022/05/08 04:08:27;;;;;;;5.30;2.80;;;17.70;63.00;;;;;;10414675;28;20053;-50
2022/05/08 04:13:28;;;;;;;5.97;2.75;;;17.70;63.00;;;;;;10415655;28;20064;-49
2022/05/08 04:18:28;;;;;;;5.55;2.17;;;17.70;62.90;;;;;;10415440;28;20100;-50
2022/05/08 04:28:48;;;;;;;4.53;2.53;;;17.70;62.90;;;;;;10412373;28;20053;-49
2022/05/08 04:33:49;;;;;;;5.65;2.20;;;17.70;62.80;;;;;;10413037;28;20112;-52
2022/05/08 04:38:50;;;;;;;5.97;2.67;;;17.70;63.00;;;;;;10404594;28;20069;-51
2022/05/08 04:43:53;;;;;;;11.88;3.80;;;17.70;63.40;;;;;;10413990;28;20083;-49
2022/05/08 04:48:54;;;;;;;8.88;3.25;;;17.70;63.50;;;;;;10413533;28;20028;-52
2022/05/08 04:53:54;;;;;;;8.27;3.85;;;17.70;63.40;;;;;;10416116;28;20457;-49
2022/05/08 04:58:55;;;;;;;11.63;3.90;;;17.70;62.70;;;;;;10413023;28;20116;-46
2022/05/08 05:03:56;;;;;;;15.27;3.95;;;17.70;62.80;;;;;;10413315;28;20087;-51
2022/05/08 05:08:58;;;;;;;10.05;3.92;;;17.70;63.80;;;;;;10412917;28;20037;-54
2022/05/08 05:13:58;;;;;;;16.25;3.92;;;17.80;64.60;;;;;;10413664;28;20043;-53
2022/05/08 05:18:59;;;;;;;12.70;3.75;;;17.90;64.50;;;;;;10412875;28;20047;-54
2022/05/08 05:24:00;;;;;;;12.43;4.18;;;18.00;65.00;;;;;;10399760;28;20107;-54
2022/05/08 05:29:00;;;;;;;7.00;2.42;;;18.10;65.10;;;;;;10412194;28;20155;-53
2022/05/08 05:34:01;;;;;;;13.90;4.05;;;18.10;64.80;;;;;;10412550;28;20060;-57
2022/05/08 05:39:02;;;;;;;14.20;4.35;;;18.00;65.10;;;;;;10412280;28;20518;-54
2022/05/08 05:44:02;;;;;;;13.90;3.25;;;17.90;64.90;;;;;;10412922;28;20033;-53
2022/05/08 05:49:03;;;;;;;10.40;3.03;;;17.90;65.30;;;;;;10409607;28;20116;-56
2022/05/08 05:54:04;;;;;;;11.88;3.22;;;17.90;65.40;;;;;;10411732;28;20026;-54
2022/05/08 05:59:04;;;;;;;9.00;3.50;;;17.90;64.70;;;;;;10411087;28;20037;-54
2022/05/08 06:04:05;;;;;;;14.35;4.40;;;17.90;65.10;;;;;;10410358;28;20078;-54
2022/05/08 06:09:07;;;;;;;13.43;3.90;;;17.90;64.80;;;;;;10411527;28;20037;-53
2022/05/08 06:14:07;;;;;;;16.35;5.07;;;17.80;64.20;;;;;;10426987;28;20022;-53
2022/05/08 06:19:08;;;;;;;15.48;3.85;;;17.80;63.50;;;;;;10407671;28;20033;-53
2022/05/08 06:24:09;;;;;;;14.38;3.67;;;17.80;63.60;;;;;;10408475;28;20032;-55
2022/05/08 06:29:10;;;;;;;12.35;3.47;;;17.80;63.40;;;;;;10422784;28;20490;-54
2022/05/08 06:34:10;;;;;;;10.52;3.65;;;17.70;63.40;;;;;;10384710;28;20065;-54
2022/05/08 06:39:13;;;;;;;9.70;3.17;;;17.80;63.70;;;;;;10417698;28;20497;-55
2022/05/08 06:44:14;;;;;;;12.65;3.75;;;17.80;63.50;;;;;;10425425;28;20036;-55
2022/05/08 06:49:15;;;;;;;11.80;3.30;;;17.80;63.50;;;;;;10417583;28;20036;-56
2022/05/08 06:54:16;;;;;;;13.05;3.63;;;17.70;63.70;;;;;;10413897;28;20025;-55
2022/05/08 07:04:36;;;;;;;8.17;3.73;;;17.80;63.30;;;;;;10417868;28;20502;-55
2022/05/08 07:09:36;;;;;;;15.75;4.85;;;17.70;63.30;;;;;;10416182;28;20112;-54
2022/05/08 07:14:40;;;;;;;16.05;4.13;;;17.70;60.90;;;;;;10399734;28;20040;-56
2022/05/08 07:19:40;;;;;;;13.43;3.80;;;17.70;58.80;;;;;;10414414;28;20053;-54
2022/05/08 07:24:41;;;;;;;13.07;3.60;;;17.60;58.10;;;;;;10403854;28;20073;-55
2022/05/08 07:29:45;;;;;;;19.13;3.80;;;17.60;56.70;;;;;;10401647;28;20667;-54
2022/05/08 07:40:06;;;;;;;9.97;3.37;;;17.60;57.00;;;;;;10416099;28;20124;-54
2022/05/08 07:45:07;;;;;;;15.80;3.55;;;17.60;56.60;;;;;;10416182;28;20037;-55
2022/05/08 07:50:08;;;;;;;28.02;5.97;;;17.60;55.80;;;;;;10416177;28;20379;-50
2022/05/08 07:55:09;;;;;;;22.30;4.47;;;17.60;54.50;;;;;;10409650;28;20076;-55
2022/05/08 08:00:11;;;;;;;15.02;4.90;;;17.70;55.00;;;;;;10423338;28;20155;-54
2022/05/08 08:05:11;;;;;;;11.68;4.18;;;17.70;55.30;;;;;;10405763;28;20037;-54
2022/05/08 08:10:12;;;;;;;10.18;3.65;;;17.70;55.70;;;;;;10413248;28;20355;-53
2022/05/08 08:15:13;;;;;;;16.00;5.35;;;17.70;56.00;;;;;;10411736;28;20025;-54
2022/05/08 08:20:14;;;;;;;13.63;3.47;;;17.70;56.10;;;;;;10412050;28;20037;-54
2022/05/08 08:25:15;;;;;;;12.10;3.83;;;17.80;56.60;;;;;;10397069;28;20456;-53
2022/05/08 08:30:15;;;;;;;12.82;4.10;;;17.80;56.70;;;;;;10412817;28;20041;-56
2022/05/08 08:35:16;;;;;;;10.30;3.08;;;17.80;56.90;;;;;;10414551;28;20108;-53
2022/05/08 08:40:18;;;;;;;10.82;3.40;;;17.80;57.00;;;;;;10414157;28;20052;-54
2022/05/08 08:50:42;;;;;;;8.52;3.60;;;17.80;57.40;;;;;;10425760;28;20054;-55
2022/05/08 08:55:42;;;;;;;12.93;3.58;;;17.80;57.50;;;;;;10412189;28;20481;-51
2022/05/08 09:00:46;;;;;;;9.13;3.13;;;17.80;57.60;;;;;;10413529;28;20029;-54
2022/05/08 09:05:47;;;;;;;9.43;3.30;;;17.90;57.80;;;;;;10413233;28;20116;-55
2022/05/08 09:10:47;;;;;;;7.45;2.97;;;17.90;57.90;;;;;;10413257;28;20109;-52
2022/05/08 09:15:49;;;;;;;6.38;2.88;;;17.90;58.00;;;;;;10413188;28;20116;-54
2022/05/08 09:20:54;;;;;;;7.13;2.67;;;17.90;58.30;;;;;;10399384;28;20030;-53
2022/05/08 09:26:00;;;;;;;8.90;2.75;;;17.90;58.20;;;;;;10411584;28;20204;-54
2022/05/08 09:31:10;;;;;;;6.45;2.97;;;17.90;58.40;;;;;;10412466;28;20037;-54
2022/05/08 09:36:19;;;;;;;7.55;3.25;;;18.00;58.20;;;;;;10412677;28;20033;-54
2022/05/08 09:41:23;;;;;;;9.52;2.97;;;18.00;58.40;;;;;;10412508;28;20532;-51
2022/05/08 09:46:24;;;;;;;5.90;2.90;;;18.00;58.90;;;;;;10412523;28;20033;-52
2022/05/08 09:51:26;;;;;;;8.70;2.55;;;18.00;59.60;;;;;;10403803;28;20038;-51
2022/05/08 09:56:28;;;;;;;7.90;3.20;;;18.00;59.70;;;;;;10399173;28;20079;-52
2022/05/08 10:01:28;;;;;;;7.03;3.38;;;18.10;60.10;;;;;;10396880;28;20458;-53
2022/05/08 10:06:32;;;;;;;7.97;3.83;;;18.10;60.10;;;;;;10418890;28;20053;-53
2022/05/08 10:17:07;;;;;;;7.10;2.50;;;18.10;60.30;;;;;;10435297;28;20120;-52
2022/05/08 10:22:13;;;;;;;5.15;2.47;;;18.10;60.20;;;;;;10418705;28;20099;-54
2022/05/08 10:27:32;;;;;;;6.78;3.70;;;18.10;60.10;;;;;;10419600;28;20033;-52
2022/05/08 10:32:33;;;;;;;6.35;3.13;;;18.10;60.40;;;;;;10435111;28;20053;-54
2022/05/08 10:37:34;;;;;;;6.78;2.63;;;18.20;60.20;;;;;;10419182;28;20120;-54
2022/05/08 10:42:44;;;;;;;7.30;2.88;;;18.20;60.40;;;;;;10418849;28;20044;-52
2022/05/08 10:47:44;;;;;;;6.70;3.20;;;18.20;60.30;;;;;;10417323;28;20115;-52
2022/05/08 10:52:46;;;;;;;4.28;2.28;;;18.30;60.30;;;;;;10418604;28;20544;-51
2022/05/08 10:57:50;;;;;;;6.80;2.33;;;18.30;60.40;;;;;;10418376;28;20028;-49
2022/05/08 11:02:59;;;;;;;6.07;2.28;;;18.30;60.30;;;;;;10418235;28;20029;-48
2022/05/08 11:08:01;;;;;;;5.57;2.53;;;18.30;60.30;;;;;;10418044;28;20482;-48
2022/05/08 11:13:04;;;;;;;4.47;2.92;;;18.40;60.30;;;;;;10415594;28;20385;-47
2022/05/08 11:18:12;;;;;;;6.13;2.40;;;18.40;60.30;;;;;;10417514;28;20108;-49
2022/05/08 11:23:14;;;;;;;5.45;2.70;;;18.40;60.20;;;;;;10403901;28;20087;-49
2022/05/08 11:28:18;;;;;;;6.70;2.85;;;18.50;60.30;;;;;;10417109;28;20037;-48
2022/05/08 11:39:13;;;;;;;4.43;2.13;;;18.50;60.30;;;;;;10417045;28;20493;-50
2022/05/08 11:44:14;;;;;;;6.00;2.80;;;18.50;60.20;;;;;;10416407;28;20029;-49
2022/05/08 11:49:17;;;;;;;3.63;2.20;;;18.50;59.90;;;;;;10416420;28;20462;-47
2022/05/08 11:54:37;;;;;;;6.45;2.25;;;18.50;59.90;;;;;;10406247;28;20041;-48
2022/05/08 11:59:39;;;;;;;4.65;2.20;;;18.50;59.80;;;;;;10415989;28;20037;-47
2022/05/08 12:04:42;;;;;;;4.15;2.47;;;18.60;59.80;;;;;;10416003;28;20026;-48
2022/05/08 12:09:48;;;;;;;3.50;1.90;;;18.60;59.80;;;;;;10413105;28;20154;-50
2022/05/08 12:15:04;;;;;;;4.93;1.85;;;18.60;59.70;;;;;;10415221;28;20042;-49
2022/05/08 12:20:19;;;;;;;3.72;1.83;;;18.60;59.50;;;;;;10429570;28;20355;-48
2022/05/08 12:25:19;;;;;;;3.00;2.08;;;18.70;59.60;;;;;;10414746;28;20048;-48
2022/05/08 12:30:20;;;;;;;5.00;2.13;;;18.70;59.70;;;;;;10413130;28;20613;-48
2022/05/08 12:35:21;;;;;;;3.45;1.98;;;18.70;59.50;;;;;;10414751;28;20131;-48
2022/05/08 12:40:22;;;;;;;3.22;2.35;;;18.70;59.50;;;;;;10414057;28;20025;-48
2022/05/08 12:45:23;;;;;;;6.95;2.40;;;18.80;60.20;;;;;;10413735;28;20029;-47
2022/05/08 12:50:23;;;;;;;5.38;2.30;;;18.70;59.50;;;;;;10412778;28;20508;-47
2022/05/08 12:55:24;;;;;;;3.75;2.00;;;18.80;59.50;;;;;;10409343;28;20033;-48
2022/05/08 13:00:26;;;;;;;3.03;1.63;;;18.80;59.40;;;;;;10413850;28;20038;-48
2022/05/08 13:05:26;;;;;;;3.03;2.28;;;18.80;59.40;;;;;;10413522;28;20040;-52
2022/05/08 13:10:27;;;;;;;2.65;1.55;;;18.80;59.30;;;;;;10413346;28;20035;-48
2022/05/08 13:15:28;;;;;;;3.20;1.92;;;18.80;59.20;;;;;;10413293;28;20025;-48
2022/05/08 13:20:29;;;;;;;3.75;1.73;;;18.80;59.30;;;;;;10413286;28;20076;-50
2022/05/08 13:25:30;;;;;;;3.97;2.20;;;18.80;59.20;;;;;;10398824;28;20036;-49
2022/05/08 13:30:31;;;;;;;3.40;1.90;;;18.90;59.30;;;;;;10412154;28;20046;-49
2022/05/08 13:35:32;;;;;;;2.85;1.73;;;18.90;59.20;;;;;;10412258;28;20088;-48
2022/05/08 13:40:33;;;;;;;4.72;1.90;;;18.90;59.30;;;;;;10412179;28;20045;-49
2022/05/08 13:45:34;;;;;;;2.65;1.65;;;18.90;59.10;;;;;;10412166;28;20029;-49
2022/05/08 13:50:34;;;;;;;4.65;2.05;;;18.90;59.20;;;;;;10409621;28;20124;-49
2022/05/08 13:55:38;;;;;;;3.40;1.40;;;18.90;59.00;;;;;;10410409;28;20029;-49
2022/05/08 14:00:40;;;;;;;3.20;1.98;;;18.90;59.10;;;;;;10412703;28;20480;-50
2022/05/08 14:05:41;;;;;;;3.70;1.50;;;18.90;59.10;;;;;;10410577;28;20037;-49
2022/05/08 14:10:43;;;;;;;5.07;1.67;;;18.90;59.20;;;;;;10427275;28;20033;-51
2022/05/08 14:15:44;;;;;;;3.60;1.58;;;18.90;59.00;;;;;;10411751;28;20037;-49
2022/05/08 14:20:46;;;;;;;3.65;2.00;;;18.90;59.00;;;;;;10411852;28;20079;-51
2022/05/08 14:25:47;;;;;;;4.22;1.90;;;18.90;59.00;;;;;;10410964;28;20034;-50
2022/05/08 14:36:07;;;;;;;4.28;1.60;;;18.90;58.90;;;;;;10421076;28;20034;-50
2022/05/08 14:41:08;;;;;;;4.35;2.05;;;18.90;58.40;;;;;;10405184;28;20068;-51
2022/05/08 14:46:08;;;;;;;5.13;1.63;;;18.80;55.60;;;;;;10407503;28;20041;-51
2022/05/08 14:51:09;;;;;;;4.32;1.80;;;18.80;54.20;;;;;;10411103;28;20025;-52
2022/05/08 14:56:12;;;;;;;8.43;2.22;;;18.80;53.00;;;;;;10418239;28;20465;-51
2022/05/08 15:01:13;;;;;;;7.68;2.00;;;18.80;52.50;;;;;;10417709;28;20021;-51
2022/05/08 15:06:14;;;;;;;6.88;2.03;;;18.70;51.50;;;;;;10418115;28;20042;-50
2022/05/08 15:11:18;;;;;;;5.60;2.15;;;18.70;50.20;;;;;;10416983;28;20545;-49
2022/05/08 15:16:18;;;;;;;5.50;2.42;;;18.70;48.30;;;;;;10432714;28;20032;-53
2022/05/08 15:21:20;;;;;;;6.95;2.42;;;18.70;49.00;;;;;;10418125;28;20029;-51
2022/05/08 15:26:22;;;;;;;4.88;2.25;;;18.60;48.30;;;;;;10417890;28;20029;-50
2022/05/08 15:31:23;;;;;;;8.27;3.08;;;18.60;48.50;;;;;;10417155;28;20050;-50
2022/05/08 15:36:23;;;;;;;7.15;2.35;;;18.70;48.00;;;;;;10417720;28;20754;-50
2022/05/08 15:41:24;;;;;;;6.43;2.42;;;18.70;47.30;;;;;;10416923;28;20036;-54
2022/05/08 15:46:25;;;;;;;8.32;2.38;;;18.70;46.60;;;;;;10417153;28;20041;-53
2022/05/08 15:51:25;;;;;;;5.63;2.58;;;18.60;46.00;;;;;;10414852;28;20029;-54
2022/05/08 15:56:26;;;;;;;8.93;2.70;;;18.80;46.80;;;;;;10415989;28;20096;-53
2022/05/08 16:01:28;;;;;;;10.70;2.72;;;18.90;51.50;;;;;;10415024;28;20035;-53
2022/05/08 16:06:28;;;;;;;11.25;3.75;;;19.10;52.80;;;;;;10413791;28;20033;-49
2022/05/08 16:11:29;;;;;;;14.25;3.33;;;19.10;53.70;;;;;;10415260;28;20040;-54
2022/05/08 16:27:08;;;;;;;10.47;3.73;;;18.90;49.80;;;;;;10415725;28;20041;-48
2022/05/08 16:32:09;;;;;;;8.20;3.53;;;18.80;48.10;;;;;;10414968;28;20038;-52
2022/05/08 16:37:10;;;;;;;14.23;7.75;;;18.70;47.30;;;;;;10414377;28;20108;-50
2022/05/08 16:42:10;;;;;;;16.10;8.07;;;18.70;47.00;;;;;;10412896;28;20062;-50
2022/05/08 16:47:11;;;;;;;11.57;6.10;;;18.70;46.90;;;;;;10418639;28;20072;-50
2022/05/08 16:52:12;;;;;;;10.48;4.82;;;18.70;46.60;;;;;;10411805;28;20065;-48
2022/05/08 16:57:13;;;;;;;11.20;5.03;;;18.60;46.40;;;;;;10411096;28;20045;-52
2022/05/08 17:02:14;;;;;;;10.18;4.35;;;18.70;46.20;;;;;;10413357;28;20064;-50
2022/05/08 17:07:17;;;;;;;8.25;3.90;;;18.60;45.90;;;;;;10413467;28;20033;-49
2022/05/08 17:12:20;;;;;;;6.82;3.92;;;18.70;45.50;;;;;;10412338;28;20030;-48
2022/05/08 17:17:20;;;;;;;9.60;3.40;;;18.60;45.60;;;;;;10412946;28;20040;-49
2022/05/08 17:22:21;;;;;;;9.10;3.30;;;18.60;45.50;;;;;;10400211;28;20033;-49
2022/05/08 17:32:44;;;;;;;4.57;3.05;;;18.60;46.20;;;;;;10409088;28;20073;-50
2022/05/08 17:37:45;;;;;;;5.57;2.75;;;18.60;46.20;;;;;;10411986;28;20103;-48
2022/05/08 17:42:46;;;;;;;5.95;2.45;;;18.60;45.90;;;;;;10412378;28;20033;-51
2022/05/08 17:47:47;;;;;;;6.07;2.63;;;18.60;44.40;;;;;;10406435;28;20040;-49
2022/05/08 17:52:48;;;;;;;8.55;2.60;;;18.60;45.80;;;;;;10409375;28;20033;-50
2022/05/08 17:57:48;;;;;;;7.53;2.38;;;18.60;45.50;;;;;;10409893;28;20486;-53
2022/05/08 18:08:08;;;;;;;7.43;2.10;;;18.70;45.10;;;;;;10407504;28;20461;-55
2022/05/08 18:13:09;;;;;;;10.55;2.40;;;18.60;45.00;;;;;;10407292;28;20042;-53
2022/05/08 18:18:10;;;;;;;10.65;2.45;;;18.70;45.00;;;;;;10406551;28;20037;-49
2022/05/08 18:23:11;;;;;;;8.63;3.28;;;18.60;45.00;;;;;;10408002;28;20057;-52
2022/05/08 18:28:12;;;;;;;8.13;2.20;;;18.70;45.00;;;;;;10417984;28;20044;-53
2022/05/08 18:33:13;;;;;;;5.65;2.28;;;18.60;45.60;;;;;;10417619;28;20034;-52
2022/05/08 18:38:13;;;;;;;10.98;2.72;;;18.60;45.70;;;;;;10415429;28;20112;-48
2022/05/08 18:43:14;;;;;;;9.55;3.28;;;18.60;45.90;;;;;;10415798;28;20111;-50
2022/05/08 18:48:15;;;;;;;9.52;3.13;;;18.60;46.30;;;;;;10420489;28;20030;-50
2022/05/08 18:53:17;;;;;;;11.00;2.83;;;18.60;46.90;;;;;;10409054;28;20034;-52
2022/05/08 18:58:18;;;;;;;12.23;2.83;;;18.60;47.40;;;;;;10418758;28;20576;-53
2022/05/08 19:03:18;;;;;;;8.38;2.40;;;18.70;48.00;;;;;;10409313;28;20064;-52
2022/05/08 19:08:19;;;;;;;7.28;2.13;;;18.60;48.10;;;;;;10417944;28;20552;-52
2022/05/08 19:13:20;;;;;;;7.70;2.63;;;18.60;48.60;;;;;;10417567;28;20072;-52
2022/05/08 19:18:20;;;;;;;7.72;2.53;;;18.60;48.80;;;;;;10413503;28;20102;-53
2022/05/08 19:23:21;;;;;;;8.05;2.20;;;18.60;49.20;;;;;;10396693;28;20088;-50
2022/05/08 19:28:23;;;;;;;9.23;2.67;;;18.70;49.50;;;;;;10416603;28;20120;-52
2022/05/08 19:38:44;;;;;;;7.10;2.47;;;18.70;50.10;;;;;;10415699;28;20482;-53
2022/05/08 19:43:45;;;;;;;7.47;2.33;;;18.70;50.40;;;;;;10408385;28;20036;-56
2022/05/08 19:48:47;;;;;;;5.38;2.20;;;18.70;50.50;;;;;;10415511;28;20064;-54
2022/05/08 19:53:48;;;;;;;5.53;2.42;;;18.70;50.80;;;;;;10411116;28;20038;-55
2022/05/08 19:58:49;;;;;;;5.20;2.22;;;18.70;50.70;;;;;;10415109;28;20056;-54
2022/05/08 20:03:50;;;;;;;5.00;2.28;;;18.60;50.60;;;;;;10413883;28;20056;-54
2022/05/08 20:08:53;;;;;;;4.25;2.00;;;18.70;50.70;;;;;;10412816;28;20613;-57
2022/05/08 20:13:53;;;;;;;5.93;2.28;;;18.60;50.70;;;;;;10414367;28;20083;-56
2022/05/08 20:18:54;;;;;;;3.85;1.80;;;18.60;50.90;;;;;;10412861;28;20117;-57
2022/05/08 20:23:56;;;;;;;3.58;1.63;;;18.60;50.90;;;;;;10399730;28;20116;-55
2022/05/08 20:28:57;;;;;;;5.88;2.00;;;18.60;51.10;;;;;;10411301;28;20049;-54
2022/05/08 20:33:57;;;;;;;4.07;1.63;;;18.60;51.10;;;;;;10415612;28;20080;-55
2022/05/08 20:38:58;;;;;;;2.72;1.50;;;18.50;51.00;;;;;;10415103;28;20035;-56
2022/05/08 20:43:59;;;;;;;3.60;1.90;;;18.60;51.00;;;;;;10413246;28;20045;-57
2022/05/08 20:49:00;;;;;;;3.25;1.58;;;18.50;51.00;;;;;;10413855;28;20125;-55
2022/05/08 20:54:02;;;;;;;3.97;2.22;;;18.50;51.20;;;;;;10408577;28;20030;-56
2022/05/08 20:59:03;;;;;;;2.40;1.55;;;18.50;51.20;;;;;;10414328;28;20029;-56
2022/05/08 21:04:04;;;;;;;5.68;1.95;;;18.50;51.20;;;;;;10429571;28;20106;-55
2022/05/08 21:09:06;;;;;;;2.65;1.50;;;18.50;51.20;;;;;;10413839;28;20065;-55
2022/05/08 21:14:07;;;;;;;3.58;1.90;;;18.50;51.20;;;;;;10412952;28;20025;-56
2022/05/08 21:19:10;;;;;;;3.50;1.58;;;18.50;51.30;;;;;;10413399;28;20029;-54
2022/05/08 21:24:10;;;;;;;4.28;2.20;;;18.50;51.40;;;;;;10416681;28;20029;-54
2022/05/08 21:29:12;;;;;;;5.20;2.38;;;18.40;51.40;;;;;;10413101;28;20513;-55
2022/05/08 21:34:13;;;;;;;3.25;1.60;;;18.50;51.60;;;;;;10411724;28;20036;-57
2022/05/08 21:39:14;;;;;;;5.13;1.80;;;18.50;51.60;;;;;;10428214;28;20120;-56
2022/05/08 21:44:15;;;;;;;4.55;1.60;;;18.50;51.70;;;;;;10412979;28;20073;-56
2022/05/08 21:49:17;;;;;;;4.10;2.00;;;18.40;51.80;;;;;;10412555;28;20037;-57
2022/05/08 21:54:18;;;;;;;4.07;1.83;;;18.40;51.90;;;;;;10411496;28;20029;-56
2022/05/08 21:59:19;;;;;;;3.97;1.48;;;18.40;51.90;;;;;;10417965;28;20051;-54
2022/05/08 22:04:19;;;;;;;4.20;1.88;;;18.40;51.90;;;;;;10421173;28;20529;-56
2022/05/08 22:09:20;;;;;;;3.65;1.50;;;18.40;52.00;;;;;;10419455;28;20585;-56
2022/05/08 22:14:20;;;;;;;3.65;1.40;;;18.40;52.10;;;;;;10420874;28;20052;-55
2022/05/08 22:19:21;;;;;;;4.22;1.50;;;18.40;52.10;;;;;;10420419;28;20061;-56
2022/05/08 22:24:22;;;;;;;4.88;2.05;;;18.40;52.20;;;;;;10420791;28;20128;-56
2022/05/08 22:29:24;;;;;;;3.67;1.92;;;18.40;52.20;;;;;;10420181;28;20128;-54
2022/05/08 22:34:24;;;;;;;4.43;1.77;;;18.40;52.30;;;;;;10435522;28;20032;-54
2022/05/08 22:39:25;;;;;;;3.63;1.42;;;18.40;52.30;;;;;;10435118;28;20040;-56
2022/05/08 22:44:26;;;;;;;3.25;1.52;;;18.40;52.30;;;;;;10419742;28;20551;-57
2022/05/08 22:49:26;;;;;;;3.92;1.35;;;18.40;52.30;;;;;;10419302;28;20382;-55
2022/05/08 22:54:27;;;;;;;3.35;1.95;;;18.40;52.30;;;;;;10409758;28;20486;-57
2022/05/08 22:59:28;;;;;;;2.53;1.35;;;18.30;52.30;;;;;;10419128;28;20073;-55
2022/05/08 23:04:28;;;;;;;2.80;1.15;;;18.30;52.40;;;;;;10418705;28;20060;-56
2022/05/08 23:09:29;;;;;;;3.28;1.20;;;18.30;52.40;;;;;;10417395;28;20473;-57
2022/05/08 23:20:11;;;;;;;3.30;1.25;;;18.30;52.50;;;;;;10418812;28;20116;-57
2022/05/08 23:25:17;;;;;;;2.90;1.80;;;18.30;52.40;;;;;;10405065;28;20092;-55
2022/05/08 23:30:20;;;;;;;3.65;1.55;;;18.30;52.50;;;;;;10417370;28;20060;-56
2022/05/08 23:35:23;;;;;;;3.20;1.58;;;18.30;52.40;;;;;;10417621;28;20691;-56
2022/05/08 23:40:27;;;;;;;2.88;1.52;;;18.30;52.40;;;;;;10419458;28;20037;-55
2022/05/08 23:45:28;;;;;;;2.65;1.63;;;18.30;52.40;;;;;;10432513;28;20052;-55
2022/05/08 23:50:29;;;;;;;7.18;1.75;;;18.20;52.40;;;;;;10415396;28;20130;-56
2022/05/08 23:55:30;;;;;;;4.45;1.33;;;18.30;52.50;;;;;;10416867;28;20114;-57
